Time;durP1;ratioP1;P1;durP2;ratioP2;P2;SDS_P1;SDS_P2;PMS_P1;PMS_P2;Temp;Humidity;BMP_temperature;BMP_pressure;BME280_temperature;BME280_humidity;BME280_pressure;Samples;Min_cycle;Max_cycle;Signal;HPM_P1;HPM_P2
2021/06/03 00:08:49;;;;;;;10.73;6.40;;;17.10;97.30;;;;;;5092271;22;20510;-89
2021/06/03 00:11:16;;;;;;;8.60;6.50;;;17.10;97.30;;;;;;4996934;28;20425;-89
2021/06/03 00:13:44;;;;;;;8.80;6.37;;;17.00;97.30;;;;;;4996932;28;20197;-89
2021/06/03 00:16:14;;;;;;;10.73;6.50;;;17.00;97.30;;;;;;4997350;28;20454;-89
2021/06/03 00:18:42;;;;;;;10.33;7.10;;;17.00;97.30;;;;;;4999276;28;20424;-90
2021/06/03 00:21:11;;;;;;;13.80;6.47;;;17.00;97.30;;;;;;5015197;23;20480;-92
2021/06/03 00:23:46;;;;;;;8.60;6.43;;;17.00;97.30;;;;;;5019790;28;20407;-92
2021/06/03 00:26:14;;;;;;;8.33;6.20;;;17.00;97.30;;;;;;5020114;28;21009;-91
2021/06/03 00:28:40;;;;;;;9.30;6.10;;;16.90;97.30;;;;;;5003488;28;20408;-92
2021/06/03 00:31:05;;;;;;;8.23;6.07;;;16.90;97.30;;;;;;5019399;28;20428;-92
2021/06/03 00:34:04;;;;;;;;;;;;;;;;;;;;;
2021/06/03 00:39:40;;;;;;;9.27;6.80;;;16.80;97.30;;;;;;4939660;29;20411;-93
2021/06/03 00:42:22;;;;;;;11.70;6.40;;;16.80;97.30;;;;;;4939115;29;20919;-91
2021/06/03 00:44:55;;;;;;;12.70;6.70;;;16.70;97.30;;;;;;4938195;29;20622;-92
2021/06/03 00:47:46;;;;;;;10.07;7.03;;;16.70;97.30;;;;;;4970855;28;20985;-92
2021/06/03 00:50:30;;;;;;;9.27;6.50;;;16.60;97.30;;;;;;4999629;28;20436;-92
2021/06/03 00:52:56;;;;;;;9.60;6.77;;;16.60;97.30;;;;;;4998914;28;20404;-92
2021/06/03 00:56:05;;;;;;;9.10;6.60;;;16.50;97.30;;;;;;4999545;28;20424;-92
2021/06/03 00:58:31;;;;;;;12.03;6.87;;;16.50;97.30;;;;;;5012983;28;20420;-91
2021/06/03 01:01:00;;;;;;;8.60;6.33;;;16.40;97.30;;;;;;4999595;28;20467;-92
2021/06/03 01:03:36;;;;;;;14.90;7.40;;;16.30;97.30;;;;;;4998912;28;20985;-91
2021/06/03 01:06:06;;;;;;;9.30;7.27;;;16.30;97.30;;;;;;5000256;28;20838;-92
2021/06/03 01:08:36;;;;;;;13.13;7.23;;;16.20;97.30;;;;;;4999746;28;20906;-91
2021/06/03 01:11:32;;;;;;;8.87;7.50;;;16.10;97.30;;;;;;4999097;28;20439;-92
2021/06/03 01:14:08;;;;;;;8.93;6.73;;;16.10;97.30;;;;;;4998566;28;20448;-91
2021/06/03 01:16:35;;;;;;;9.50;6.90;;;16.10;97.30;;;;;;4999077;28;20969;-93
2021/06/03 01:19:14;;;;;;;9.47;7.43;;;16.00;97.30;;;;;;5001896;28;20416;-91
2021/06/03 01:21:51;;;;;;;11.87;7.20;;;16.00;97.30;;;;;;4999759;28;20476;-92
2021/06/03 01:24:30;;;;;;;12.20;7.60;;;16.00;97.30;;;;;;5001169;28;20420;-92
2021/06/03 01:27:06;;;;;;;9.50;6.90;;;16.00;97.30;;;;;;5000018;28;20428;-91
2021/06/03 01:29:57;;;;;;;11.60;8.00;;;15.90;97.30;;;;;;5000313;28;20413;-92
2021/06/03 01:32:39;;;;;;;13.20;7.70;;;15.90;97.30;;;;;;4997967;28;20507;-92
2021/06/03 01:35:20;;;;;;;;;;;;;;;;;;;;;
2021/06/03 01:37:47;;;;;;;9.03;6.70;;;16.00;97.30;;;;;;4998910;28;20503;-93
2021/06/03 01:40:25;;;;;;;11.40;7.70;;;15.90;97.30;;;;;;4998008;28;20437;-92
2021/06/03 01:42:51;;;;;;;10.30;7.30;;;16.00;97.30;;;;;;4980816;28;20405;-92
2021/06/03 01:45:18;;;;;;;12.70;7.50;;;16.00;97.30;;;;;;4980943;28;20444;-91
2021/06/03 01:47:51;;;;;;;13.03;8.13;;;16.00;97.30;;;;;;4997122;28;20174;-92
2021/06/03 01:50:40;;;;;;;;;;;;;;;;;;;;;
2021/06/03 01:53:10;;;;;;;8.63;6.70;;;16.00;97.30;;;;;;4997737;28;20488;-92
2021/06/03 01:55:38;;;;;;;10.13;6.53;;;16.00;97.30;;;;;;4995850;28;20441;-93
2021/06/03 01:58:08;;;;;;;9.50;6.90;;;16.00;97.30;;;;;;4979034;28;20417;-93
2021/06/03 02:00:36;;;;;;;11.77;7.40;;;16.00;97.30;;;;;;4996245;28;20460;-92
2021/06/03 02:03:11;;;;;;;10.03;7.27;;;16.00;97.30;;;;;;4981331;28;20409;-93
2021/06/03 02:05:36;;;;;;;11.63;6.80;;;16.00;97.30;;;;;;4998205;28;21002;-92
2021/06/03 02:08:02;;;;;;;8.57;6.43;;;16.00;97.30;;;;;;4999916;28;20496;-92
2021/06/03 02:10:28;;;;;;;10.93;6.73;;;15.90;97.30;;;;;;4983079;28;20293;-92
2021/06/03 02:13:26;;;;;;;9.10;7.23;;;15.90;97.30;;;;;;4999271;28;20460;-92
2021/06/03 02:16:16;;;;;;;10.10;7.20;;;15.90;97.30;;;;;;4997936;28;20166;-92
2021/06/03 02:19:03;;;;;;;9.73;6.80;;;15.90;97.30;;;;;;4997911;28;20472;-92
2021/06/03 02:21:41;;;;;;;9.53;7.00;;;15.80;97.30;;;;;;4998035;28;20488;-92
2021/06/03 02:24:15;;;;;;;12.23;7.23;;;15.80;97.30;;;;;;4982755;28;20472;-92
2021/06/03 02:26:45;;;;;;;10.10;7.00;;;15.80;97.30;;;;;;4983619;28;20409;-92
2021/06/03 02:29:12;;;;;;;8.27;6.40;;;15.70;97.30;;;;;;4998524;28;20900;-91
2021/06/03 02:31:41;;;;;;;11.10;7.50;;;15.70;97.30;;;;;;4999282;28;20500;-92
2021/06/03 02:34:14;;;;;;;9.83;6.80;;;15.70;97.30;;;;;;4998746;28;20417;-92
2021/06/03 02:36:39;;;;;;;11.53;6.57;;;15.70;97.30;;;;;;4982981;28;20452;-92
2021/06/03 02:39:06;;;;;;;15.60;7.63;;;15.70;97.30;;;;;;4998031;28;20410;-92
2021/06/03 02:41:41;;;;;;;12.57;7.17;;;15.70;97.30;;;;;;4980861;28;20205;-92
2021/06/03 02:44:07;;;;;;;11.77;7.57;;;15.70;97.30;;;;;;4997477;28;20427;-93
2021/06/03 02:46:36;;;;;;;14.90;8.07;;;15.70;97.30;;;;;;4998435;28;20417;-92
2021/06/03 02:49:11;;;;;;;11.77;8.07;;;15.70;97.30;;;;;;4998147;28;20409;-92
2021/06/03 02:51:37;;;;;;;12.00;7.23;;;15.60;97.30;;;;;;4996729;28;20441;-92
2021/06/03 02:54:06;;;;;;;12.80;7.40;;;15.60;97.30;;;;;;4997462;28;20496;-93
2021/06/03 02:56:32;;;;;;;12.00;7.60;;;15.60;97.30;;;;;;4997867;28;20178;-91
2021/06/03 02:59:13;;;;;;;11.27;7.40;;;15.50;97.30;;;;;;4996039;28;20421;-92
2021/06/03 03:01:41;;;;;;;10.40;7.60;;;15.50;97.30;;;;;;4998405;28;20293;-93
2021/06/03 03:04:06;;;;;;;9.10;7.10;;;15.50;97.30;;;;;;4996749;28;20504;-92
2021/06/03 03:06:34;;;;;;;11.30;8.20;;;15.50;97.30;;;;;;4996537;28;20972;-92
2021/06/03 03:48:39;;;;;;;14.60;8.70;;;15.00;97.30;;;;;;882026;23;22307;-96
2021/06/03 04:17:37;;;;;;;;;;;;;;;;;;;;;
2021/06/03 04:20:16;;;;;;;10.80;8.07;;;15.00;97.30;;;;;;4903330;29;20862;-92
2021/06/03 04:26:12;;;;;;;17.07;8.73;;;15.00;97.30;;;;;;4847007;29;20517;-92
2021/06/03 04:28:38;;;;;;;15.90;8.40;;;15.00;97.30;;;;;;4833266;29;20412;-92
2021/06/03 04:31:56;;;;;;;12.60;8.60;;;15.00;97.30;;;;;;4831447;29;20931;-91
2021/06/03 04:35:22;;;;;;;14.30;8.00;;;15.00;97.30;;;;;;4830624;29;20227;-91
2021/06/03 04:38:21;;;;;;;14.47;8.93;;;15.00;97.30;;;;;;4792897;29;20430;-92
2021/06/03 05:01:30;;;;;;;13.13;7.80;;;15.30;97.30;;;;;;2079367;23;22035;-75
2021/06/03 05:03:55;;;;;;;11.50;8.07;;;15.30;97.30;;;;;;4917815;29;20428;-75
2021/06/03 05:06:21;;;;;;;12.10;7.33;;;15.40;97.30;;;;;;4916613;29;20219;-75
2021/06/03 05:08:46;;;;;;;14.77;8.40;;;15.50;97.30;;;;;;4916714;29;20192;-75
2021/06/03 05:11:12;;;;;;;14.60;8.63;;;15.50;97.30;;;;;;4915983;29;20283;-75
2021/06/03 05:13:39;;;;;;;12.33;7.90;;;15.60;97.30;;;;;;4900652;29;20965;-76
2021/06/03 05:16:06;;;;;;;14.43;8.30;;;15.60;97.30;;;;;;4939841;23;20781;-79
2021/06/03 05:18:31;;;;;;;10.30;6.53;;;15.70;97.30;;;;;;4918746;29;20420;-80
2021/06/03 05:20:57;;;;;;;16.27;8.30;;;15.70;97.30;;;;;;4918314;29;20836;-77
2021/06/03 05:23:24;;;;;;;16.47;7.20;;;15.80;97.30;;;;;;4918515;29;20179;-79
2021/06/03 05:25:51;;;;;;;10.40;7.27;;;15.80;97.30;;;;;;4919396;29;20183;-79
2021/06/03 05:28:16;;;;;;;10.47;7.10;;;15.90;97.30;;;;;;4911828;29;20511;-78
2021/06/03 05:30:42;;;;;;;15.67;7.60;;;15.90;97.30;;;;;;4917806;29;20691;-77
2021/06/03 05:33:08;;;;;;;12.57;7.20;;;15.90;97.30;;;;;;4900622;29;20188;-76
2021/06/03 05:35:34;;;;;;;9.80;7.57;;;16.00;97.30;;;;;;4900455;29;20463;-77
2021/06/03 05:38:00;;;;;;;7.60;6.27;;;16.10;97.30;;;;;;4899581;29;20456;-77
2021/06/03 05:40:27;;;;;;;10.27;7.20;;;16.10;97.30;;;;;;4899936;29;20216;-78
2021/06/03 05:42:55;;;;;;;11.90;6.20;;;16.20;97.30;;;;;;4899727;29;20449;-76
2021/06/03 05:45:21;;;;;;;11.40;6.00;;;16.30;97.30;;;;;;4898766;29;20413;-76
2021/06/03 05:47:48;;;;;;;9.20;7.27;;;16.30;97.30;;;;;;4897934;29;20425;-76
2021/06/03 05:50:15;;;;;;;8.70;6.73;;;16.40;97.30;;;;;;4898241;29;20472;-76
2021/06/03 05:52:42;;;;;;;11.03;7.23;;;16.50;97.30;;;;;;4898920;29;20431;-76
2021/06/03 05:55:10;;;;;;;11.70;6.93;;;16.50;97.30;;;;;;4915693;29;20552;-75
2021/06/03 05:57:37;;;;;;;12.77;7.50;;;16.60;97.30;;;;;;4899368;29;20432;-78
2021/06/03 06:00:33;;;;;;;11.40;7.30;;;16.70;97.30;;;;;;4899723;29;20429;-77
2021/06/03 06:03:04;;;;;;;14.43;6.40;;;16.80;97.30;;;;;;4898234;29;20650;-78
2021/06/03 06:08:15;;;;;;;10.97;6.60;;;17.00;97.30;;;;;;4898890;29;20446;-78
2021/06/03 06:10:45;;;;;;;11.27;6.97;;;17.00;97.30;;;;;;4881173;29;20563;-78
2021/06/03 06:13:11;;;;;;;14.17;6.90;;;17.10;97.30;;;;;;4880711;29;20424;-77
2021/06/03 06:15:39;;;;;;;8.10;6.20;;;17.20;97.30;;;;;;4881070;29;20545;-78
2021/06/03 06:18:05;;;;;;;9.10;6.63;;;17.30;97.30;;;;;;4881265;29;20544;-78
2021/06/03 06:20:33;;;;;;;8.00;5.70;;;17.30;97.30;;;;;;4896001;29;20428;-78
2021/06/03 06:22:59;;;;;;;11.57;6.70;;;17.40;97.30;;;;;;4881296;29;20848;-78
2021/06/03 06:25:25;;;;;;;7.50;6.37;;;17.50;97.30;;;;;;4881108;29;20436;-78
2021/06/03 06:27:50;;;;;;;8.93;6.77;;;17.60;97.30;;;;;;4881106;29;20353;-78
2021/06/03 06:30:17;;;;;;;9.67;7.00;;;17.70;97.30;;;;;;4880530;29;20449;-78
2021/06/03 06:32:43;;;;;;;9.03;6.47;;;17.80;97.30;;;;;;4881045;29;20189;-78
2021/06/03 06:35:10;;;;;;;8.60;5.50;;;17.90;97.30;;;;;;4896707;29;20457;-78
2021/06/03 06:37:35;;;;;;;9.83;6.70;;;18.00;97.30;;;;;;4880435;29;20720;-78
2021/06/03 06:40:03;;;;;;;13.10;6.10;;;18.10;97.30;;;;;;4880791;29;20430;-78
2021/06/03 06:42:30;;;;;;;11.53;6.20;;;18.10;97.30;;;;;;4880993;29;20312;-78
2021/06/03 06:44:56;;;;;;;15.33;6.43;;;18.20;97.30;;;;;;4880545;29;20942;-78
2021/06/03 06:47:21;;;;;;;9.90;6.00;;;18.30;97.30;;;;;;4879833;29;20478;-78
2021/06/03 06:49:48;;;;;;;13.50;7.23;;;18.40;97.30;;;;;;4897764;29;20422;-77
2021/06/03 06:52:14;;;;;;;10.30;5.73;;;18.50;97.30;;;;;;4880777;29;20606;-78
2021/06/03 06:54:40;;;;;;;10.27;6.57;;;18.60;97.30;;;;;;4880098;29;20433;-78
2021/06/03 06:57:06;;;;;;;9.60;5.80;;;18.70;96.30;;;;;;4880386;29;20433;-78
2021/06/03 06:59:32;;;;;;;7.73;5.67;;;18.90;96.60;;;;;;4880610;29;20712;-78
2021/06/03 07:01:58;;;;;;;6.60;5.13;;;19.00;95.90;;;;;;4896764;29;20469;-77
2021/06/03 07:04:23;;;;;;;8.27;5.83;;;19.10;95.90;;;;;;4890380;29;20713;-77
2021/06/03 07:06:49;;;;;;;8.07;5.67;;;19.20;96.30;;;;;;4899296;29;20200;-77
2021/06/03 07:09:14;;;;;;;8.57;5.93;;;19.40;96.20;;;;;;4899471;29;20267;-78
2021/06/03 07:11:40;;;;;;;8.93;5.50;;;19.50;96.50;;;;;;4898740;29;20205;-77
2021/06/03 07:14:05;;;;;;;8.30;5.77;;;19.60;95.90;;;;;;4898561;29;20187;-77
2021/06/03 07:16:31;;;;;;;7.87;5.30;;;19.70;95.20;;;;;;4872251;29;20272;-78
2021/06/03 07:18:57;;;;;;;9.80;5.37;;;19.80;93.90;;;;;;4861257;29;20198;-78
2021/06/03 07:21:22;;;;;;;8.93;5.67;;;20.00;94.00;;;;;;4880998;29;20323;-78
2021/06/03 07:23:48;;;;;;;8.30;5.40;;;20.10;94.10;;;;;;4882432;29;20233;-78
2021/06/03 07:26:14;;;;;;;7.93;5.00;;;20.20;90.60;;;;;;4882220;29;20244;-78
2021/06/03 07:28:40;;;;;;;8.80;5.20;;;20.30;90.80;;;;;;4881674;29;20618;-78
2021/06/03 07:31:06;;;;;;;7.87;5.07;;;20.50;91.40;;;;;;4879621;29;20449;-78
2021/06/03 07:33:31;;;;;;;7.40;4.77;;;20.60;90.30;;;;;;4880253;29;20185;-78
2021/06/03 07:35:57;;;;;;;5.50;4.60;;;20.70;90.50;;;;;;4880241;29;20704;-78
2021/06/03 07:38:23;;;;;;;7.30;5.10;;;20.80;90.30;;;;;;4879464;29;20236;-78
2021/06/03 07:40:49;;;;;;;8.93;5.27;;;20.80;90.00;;;;;;4897250;29;20291;-78
2021/06/03 07:43:15;;;;;;;7.53;5.40;;;20.90;90.80;;;;;;4880349;29;20508;-78
2021/06/03 07:45:42;;;;;;;7.03;4.57;;;21.00;91.70;;;;;;4879570;29;20182;-78
2021/06/03 07:48:08;;;;;;;10.40;4.50;;;21.10;91.40;;;;;;4879730;29;20231;-79
2021/06/03 07:50:35;;;;;;;6.50;5.13;;;21.20;90.70;;;;;;4897476;29;20434;-80
2021/06/03 07:53:03;;;;;;;12.23;5.40;;;21.30;91.30;;;;;;4880673;29;20469;-79
2021/06/03 07:55:29;;;;;;;8.07;5.00;;;21.40;90.40;;;;;;4879593;29;20433;-79
2021/06/03 07:57:59;;;;;;;6.20;4.33;;;21.60;90.20;;;;;;4880900;29;20414;-80
2021/06/03 08:00:26;;;;;;;7.10;4.53;;;21.70;87.40;;;;;;4880279;29;20703;-79
2021/06/03 08:02:52;;;;;;;6.20;4.23;;;21.80;87.10;;;;;;4879617;29;20486;-79
2021/06/03 08:05:20;;;;;;;9.80;4.43;;;21.90;87.80;;;;;;4879184;29;20426;-79
2021/06/03 08:07:48;;;;;;;5.43;4.10;;;22.00;84.30;;;;;;4879802;29;20174;-79
2021/06/03 08:10:17;;;;;;;9.37;4.53;;;22.10;84.30;;;;;;4879370;29;20834;-78
2021/06/03 08:12:43;;;;;;;4.70;3.80;;;22.20;86.00;;;;;;4878752;29;20429;-79
2021/06/03 08:15:11;;;;;;;5.30;3.90;;;22.30;85.60;;;;;;4876453;29;20435;-78
2021/06/03 08:17:37;;;;;;;6.20;4.00;;;22.40;84.80;;;;;;4876616;29;20441;-80
2021/06/03 08:20:05;;;;;;;7.03;4.40;;;22.50;83.40;;;;;;4890948;29;20428;-79
2021/06/03 08:22:31;;;;;;;4.53;4.03;;;22.60;83.00;;;;;;4895261;29;20719;-78
2021/06/03 08:24:57;;;;;;;5.27;3.90;;;22.70;83.80;;;;;;4890848;29;20416;-79
2021/06/03 08:27:22;;;;;;;6.40;4.10;;;22.80;83.90;;;;;;4897823;29;20655;-78
2021/06/03 08:29:48;;;;;;;7.03;4.60;;;22.90;85.00;;;;;;4914548;29;20177;-78
2021/06/03 08:32:13;;;;;;;7.80;4.70;;;23.10;85.80;;;;;;4895423;29;20222;-78
2021/06/03 08:34:39;;;;;;;8.77;4.80;;;23.20;86.10;;;;;;4896182;29;20232;-77
2021/06/03 08:37:04;;;;;;;9.13;5.10;;;23.30;84.80;;;;;;4879041;29;20241;-78
2021/06/03 08:39:30;;;;;;;6.53;4.77;;;23.40;85.00;;;;;;4878643;29;20233;-78
2021/06/03 08:41:58;;;;;;;5.90;4.40;;;23.50;85.70;;;;;;4879137;29;20213;-78
2021/06/03 08:44:25;;;;;;;8.60;4.90;;;23.50;85.60;;;;;;4879214;29;20189;-77
2021/06/03 08:46:51;;;;;;;9.20;4.50;;;23.60;85.40;;;;;;4895376;29;20422;-78
2021/06/03 08:49:17;;;;;;;8.33;4.60;;;23.70;84.30;;;;;;4897114;29;20906;-78
2021/06/03 08:51:42;;;;;;;6.13;4.33;;;23.70;84.30;;;;;;4897744;29;20200;-78
2021/06/03 08:54:08;;;;;;;5.73;4.57;;;23.70;83.70;;;;;;4897644;29;20563;-77
2021/06/03 08:56:33;;;;;;;7.10;4.33;;;23.80;84.10;;;;;;4897105;29;20192;-77
2021/06/03 08:59:01;;;;;;;8.20;4.73;;;23.90;84.00;;;;;;4897414;29;20184;-78
2021/06/03 09:01:29;;;;;;;7.30;4.47;;;24.00;83.30;;;;;;4897577;29;20268;-78
2021/06/03 09:03:54;;;;;;;5.10;3.90;;;24.10;82.80;;;;;;4890281;29;20448;-77
2021/06/03 09:06:21;;;;;;;8.70;4.10;;;24.20;82.50;;;;;;4878135;29;20925;-78
2021/06/03 09:08:57;;;;;;;7.93;4.73;;;24.30;82.20;;;;;;4878534;29;20209;-78
2021/06/03 09:11:24;;;;;;;10.60;4.10;;;24.40;82.20;;;;;;4879115;29;20489;-78
2021/06/03 09:13:53;;;;;;;5.90;4.50;;;24.40;83.10;;;;;;4878108;29;20449;-78
2021/06/03 09:16:30;;;;;;;6.00;4.30;;;24.50;83.20;;;;;;4878285;29;20473;-78
2021/06/03 09:19:00;;;;;;;5.50;4.10;;;24.60;82.50;;;;;;4878864;29;20540;-78
2021/06/03 09:21:29;;;;;;;9.60;3.87;;;24.70;82.10;;;;;;4878274;29;20468;-78
2021/06/03 09:24:13;;;;;;;7.60;3.87;;;24.80;82.00;;;;;;4883752;29;20420;-77
2021/06/03 09:26:45;;;;;;;6.23;4.17;;;24.90;82.30;;;;;;4897369;29;20931;-77
2021/06/03 09:29:13;;;;;;;5.10;4.23;;;25.00;80.40;;;;;;4897310;29;20525;-78
2021/06/03 09:31:39;;;;;;;9.03;4.67;;;25.00;81.10;;;;;;4914195;29;20578;-77
2021/06/03 09:34:13;;;;;;;9.43;5.20;;;25.10;82.80;;;;;;4897226;29;20840;-78
2021/06/03 09:36:46;;;;;;;10.63;5.13;;;25.10;83.80;;;;;;4897332;29;20648;-77
2021/06/03 09:39:13;;;;;;;6.97;5.23;;;25.00;83.30;;;;;;4898482;29;20432;-77
2021/06/03 09:41:46;;;;;;;5.63;4.77;;;25.00;83.50;;;;;;4900501;29;20463;-77
2021/06/03 09:44:21;;;;;;;6.23;4.77;;;25.00;84.70;;;;;;4900405;29;20424;-77
2021/06/03 09:46:50;;;;;;;6.27;4.60;;;25.00;84.90;;;;;;4900447;29;20420;-77
2021/06/03 09:49:27;;;;;;;6.73;4.43;;;25.10;85.40;;;;;;4917098;29;20416;-77
2021/06/03 09:52:17;;;;;;;6.47;4.53;;;25.30;82.70;;;;;;4917275;29;20458;-77
2021/06/03 09:54:51;;;;;;;7.90;5.10;;;25.40;83.10;;;;;;4900227;29;20446;-77
2021/06/03 09:57:17;;;;;;;11.70;5.50;;;25.40;83.20;;;;;;4900300;29;20434;-77
2021/06/03 09:59:45;;;;;;;9.50;5.00;;;25.40;82.90;;;;;;4900080;29;20983;-77
2021/06/03 10:02:20;;;;;;;7.83;5.10;;;25.40;82.90;;;;;;4900188;29;20491;-77
2021/06/03 10:04:52;;;;;;;7.07;4.97;;;25.30;84.50;;;;;;4886833;29;20489;-77
2021/06/03 10:07:23;;;;;;;6.80;4.60;;;25.40;85.40;;;;;;4880719;29;20469;-77
2021/06/03 10:10:08;;;;;;;8.00;5.10;;;25.50;82.90;;;;;;4880959;29;20429;-78
2021/06/03 10:12:46;;;;;;;7.27;4.90;;;25.50;82.60;;;;;;4881615;29;21223;-78
2021/06/03 10:15:21;;;;;;;7.83;4.80;;;25.70;83.40;;;;;;4880945;29;20484;-78
2021/06/03 10:17:57;;;;;;;14.57;4.47;;;25.80;83.40;;;;;;4880746;29;20413;-77
2021/06/03 10:20:22;;;;;;;7.60;4.20;;;26.00;83.80;;;;;;4881163;29;20830;-77
2021/06/03 10:22:51;;;;;;;5.93;5.00;;;26.30;81.40;;;;;;4881273;29;20480;-77
2021/06/03 10:25:28;;;;;;;4.90;4.60;;;26.50;82.40;;;;;;4880724;29;20192;-77
2021/06/03 10:28:05;;;;;;;6.13;4.10;;;26.70;80.80;;;;;;4880627;29;21000;-78
2021/06/03 10:30:41;;;;;;;7.00;4.27;;;26.80;80.60;;;;;;4880657;29;20421;-77
2021/06/03 10:33:13;;;;;;;7.50;4.90;;;26.90;80.20;;;;;;4881409;29;20960;-77
2021/06/03 10:35:41;;;;;;;7.20;4.23;;;26.90;79.50;;;;;;4900045;29;20428;-77
2021/06/03 10:38:08;;;;;;;10.80;4.00;;;26.90;77.60;;;;;;4899931;29;20940;-77
2021/06/03 10:40:37;;;;;;;5.83;4.33;;;26.90;78.40;;;;;;4900256;29;20490;-75
2021/06/03 10:43:04;;;;;;;7.23;3.80;;;26.90;78.80;;;;;;4899910;29;20484;-76
2021/06/03 10:45:31;;;;;;;4.03;3.80;;;27.10;79.20;;;;;;4900107;29;20516;-76
2021/06/03 10:47:58;;;;;;;6.23;3.90;;;27.20;76.20;;;;;;4900521;29;20428;-79
2021/06/03 10:50:32;;;;;;;6.70;3.97;;;27.10;77.00;;;;;;4892894;29;20437;-78
2021/06/03 10:53:05;;;;;;;6.00;3.83;;;27.10;77.50;;;;;;4892262;29;20813;-77
2021/06/03 10:55:37;;;;;;;5.37;4.30;;;27.10;77.60;;;;;;4882430;29;20513;-77
2021/06/03 10:58:05;;;;;;;7.80;3.80;;;27.20;76.90;;;;;;4881351;29;20796;-77
2021/06/03 11:00:37;;;;;;;5.00;3.80;;;27.20;77.30;;;;;;4880466;29;20791;-76
2021/06/03 11:03:09;;;;;;;4.80;4.00;;;27.30;74.70;;;;;;4897717;29;20418;-76
2021/06/03 11:05:38;;;;;;;5.00;4.03;;;27.20;72.70;;;;;;4897960;29;20406;-76
2021/06/03 11:08:22;;;;;;;5.23;3.40;;;27.20;74.90;;;;;;4881093;29;20425;-76
2021/06/03 11:10:49;;;;;;;7.13;3.97;;;27.20;75.00;;;;;;4881266;29;20441;-79
2021/06/03 11:13:20;;;;;;;3.93;3.40;;;27.10;76.60;;;;;;4910837;29;20417;-80
2021/06/03 11:16:05;;;;;;;6.47;4.50;;;27.10;75.10;;;;;;4899930;29;20469;-77
2021/06/03 11:18:50;;;;;;;6.00;3.83;;;27.10;75.40;;;;;;4938821;23;20502;-75
2021/06/03 11:21:31;;;;;;;5.00;3.90;;;27.20;78.20;;;;;;4915682;29;20522;-75
2021/06/03 11:24:31;;;;;;;3.90;3.40;;;27.30;77.10;;;;;;4933382;29;20412;-75
2021/06/03 11:27:02;;;;;;;4.77;3.60;;;27.40;76.00;;;;;;4916642;29;20507;-75
2021/06/03 11:29:32;;;;;;;4.90;4.07;;;27.50;73.60;;;;;;4934048;29;20519;-75
2021/06/03 11:32:03;;;;;;;4.43;3.60;;;27.60;73.70;;;;;;4917064;29;20448;-75
2021/06/03 11:34:43;;;;;;;5.77;3.70;;;27.60;75.80;;;;;;4933473;29;20774;-75
2021/06/03 11:37:15;;;;;;;5.17;3.90;;;27.60;74.90;;;;;;4916687;29;20420;-75
2021/06/03 11:39:57;;;;;;;7.60;3.70;;;27.60;75.10;;;;;;4916803;29;20510;-76
2021/06/03 11:43:03;;;;;;;5.13;3.77;;;27.70;74.40;;;;;;4916301;29;20495;-75
2021/06/03 11:45:36;;;;;;;10.60;3.60;;;27.70;75.00;;;;;;4895393;29;20412;-75
2021/06/03 11:48:14;;;;;;;5.60;3.40;;;27.80;74.80;;;;;;4934061;29;20408;-75
2021/06/03 11:50:48;;;;;;;5.10;3.50;;;27.90;75.40;;;;;;4916105;29;20447;-75
2021/06/03 11:53:16;;;;;;;5.60;3.50;;;27.90;75.20;;;;;;4933506;29;20416;-76
2021/06/03 11:55:49;;;;;;;5.53;3.90;;;28.00;74.40;;;;;;4916623;29;20444;-75
2021/06/03 11:58:38;;;;;;;5.23;4.10;;;27.90;74.40;;;;;;4916279;29;20503;-75
2021/06/03 12:01:08;;;;;;;5.07;3.90;;;27.90;74.80;;;;;;4933399;29;20866;-75
2021/06/03 12:03:41;;;;;;;5.43;3.50;;;28.00;74.40;;;;;;4916083;29;20423;-76
2021/06/03 12:06:10;;;;;;;6.60;3.53;;;28.00;74.00;;;;;;4916263;29;20428;-76
2021/06/03 12:08:45;;;;;;;5.63;3.70;;;28.10;75.00;;;;;;4916017;29;20447;-75
2021/06/03 12:11:14;;;;;;;10.33;3.53;;;28.10;74.10;;;;;;4933056;29;20443;-74
2021/06/03 12:13:41;;;;;;;6.03;3.70;;;28.30;74.40;;;;;;4916207;29;20430;-76
2021/06/03 12:16:07;;;;;;;5.53;3.97;;;28.30;72.50;;;;;;4916153;29;20430;-75
2021/06/03 12:18:44;;;;;;;3.47;3.10;;;28.50;75.90;;;;;;4915784;29;20479;-75
2021/06/03 12:21:13;;;;;;;5.73;3.40;;;28.70;72.20;;;;;;4915805;29;20471;-75
2021/06/03 12:23:50;;;;;;;3.70;3.27;;;28.80;74.10;;;;;;4916224;29;20446;-75
2021/06/03 12:26:21;;;;;;;5.60;3.97;;;28.90;73.40;;;;;;4916198;29;20434;-75
2021/06/03 12:28:47;;;;;;;4.87;3.20;;;28.90;74.90;;;;;;4932835;29;20426;-76
2021/06/03 12:31:18;;;;;;;5.33;3.50;;;28.90;74.30;;;;;;4915918;29;20448;-75
2021/06/03 12:33:43;;;;;;;5.90;3.37;;;28.90;74.40;;;;;;4916176;29;20423;-76
2021/06/03 12:36:09;;;;;;;6.10;4.03;;;28.90;73.70;;;;;;4916156;29;20450;-75
2021/06/03 12:38:36;;;;;;;8.50;4.20;;;29.00;72.90;;;;;;4932932;29;20242;-75
2021/06/03 12:41:08;;;;;;;11.70;4.20;;;28.90;73.20;;;;;;4915657;29;20223;-75
2021/06/03 12:43:39;;;;;;;6.13;3.90;;;28.90;74.10;;;;;;4915751;29;20947;-75
2021/06/03 12:46:06;;;;;;;6.67;4.17;;;28.90;73.90;;;;;;4915971;29;20423;-75
2021/06/03 12:48:32;;;;;;;6.73;4.07;;;28.90;73.10;;;;;;4915849;29;20454;-75
2021/06/03 12:51:00;;;;;;;4.63;4.10;;;28.80;73.50;;;;;;4915497;29;20821;-75
2021/06/03 12:53:25;;;;;;;6.90;4.20;;;28.80;75.30;;;;;;4915857;29;20427;-75
2021/06/03 12:55:52;;;;;;;4.63;3.80;;;28.90;75.40;;;;;;4932337;29;20420;-75
2021/06/03 12:58:19;;;;;;;5.10;4.30;;;29.00;74.90;;;;;;4932395;29;20172;-75
2021/06/03 13:00:46;;;;;;;4.93;4.10;;;29.00;74.60;;;;;;4915581;29;20626;-75
2021/06/03 13:03:21;;;;;;;7.10;4.20;;;29.00;74.50;;;;;;4915865;29;20467;-76
2021/06/03 13:06:08;;;;;;;5.90;4.53;;;29.00;74.40;;;;;;4915654;29;20431;-75
2021/06/03 13:08:44;;;;;;;7.33;4.83;;;29.00;73.10;;;;;;4915511;29;20416;-76
2021/06/03 13:11:10;;;;;;;6.23;4.50;;;28.80;74.20;;;;;;4915739;29;20446;-75
2021/06/03 13:13:35;;;;;;;6.33;4.37;;;28.80;75.90;;;;;;4916226;29;20415;-75
2021/06/03 13:16:01;;;;;;;7.87;4.37;;;28.80;74.80;;;;;;4919600;29;20243;-76
2021/06/03 13:18:27;;;;;;;5.90;4.33;;;28.80;75.10;;;;;;4919358;29;20726;-75
2021/06/03 13:20:55;;;;;;;7.27;4.97;;;28.80;74.10;;;;;;4936308;29;20601;-75
2021/06/03 13:23:23;;;;;;;15.57;5.33;;;28.70;73.60;;;;;;4918758;29;20855;-75
2021/06/03 13:25:54;;;;;;;5.50;4.00;;;28.60;75.00;;;;;;4918945;29;20510;-75
2021/06/03 13:28:23;;;;;;;5.40;4.20;;;28.50;75.70;;;;;;4919074;29;20424;-76
2021/06/03 13:30:51;;;;;;;9.20;4.23;;;28.40;75.40;;;;;;4918911;29;20436;-75
2021/06/03 13:33:19;;;;;;;7.17;4.23;;;28.20;76.50;;;;;;4918869;29;20471;-75
2021/06/03 13:35:50;;;;;;;6.37;4.40;;;28.20;77.00;;;;;;4918781;29;20420;-75
2021/06/03 13:38:17;;;;;;;11.70;4.37;;;28.30;80.20;;;;;;4935583;29;20455;-75
2021/06/03 13:40:44;;;;;;;9.83;4.20;;;28.40;76.30;;;;;;4915962;29;20448;-75
2021/06/03 13:43:13;;;;;;;7.30;4.33;;;28.40;75.90;;;;;;4924473;29;20468;-75
2021/06/03 13:45:46;;;;;;;6.20;4.30;;;28.50;77.40;;;;;;4936237;29;20467;-75
2021/06/03 13:48:28;;;;;;;5.10;4.07;;;28.60;76.70;;;;;;4916664;29;20413;-75
2021/06/03 13:50:56;;;;;;;11.20;4.37;;;28.70;78.00;;;;;;4904962;29;20534;-75
2021/06/03 13:53:27;;;;;;;6.10;4.13;;;28.80;77.40;;;;;;4918508;29;20434;-75
2021/06/03 13:56:16;;;;;;;7.03;3.83;;;28.90;77.30;;;;;;4917183;29;20467;-75
2021/06/03 13:58:54;;;;;;;6.17;4.30;;;28.90;75.10;;;;;;4918834;29;20793;-75
2021/06/03 14:01:39;;;;;;;17.23;4.30;;;28.90;77.50;;;;;;4916516;29;20517;-75
2021/06/03 14:04:16;;;;;;;9.00;4.33;;;29.10;76.10;;;;;;4908795;29;20432;-75
2021/06/03 14:06:53;;;;;;;6.87;4.50;;;29.20;76.70;;;;;;4916689;29;20444;-75
2021/06/03 14:09:20;;;;;;;7.50;4.10;;;29.40;74.80;;;;;;4900675;29;20542;-74
2021/06/03 14:14:40;;;;;;;9.87;3.87;;;29.90;77.60;;;;;;4934994;29;20593;-75
2021/06/03 14:17:09;;;;;;;8.37;4.30;;;30.20;75.60;;;;;;4934105;29;20475;-75
2021/06/03 14:19:37;;;;;;;4.60;4.23;;;30.30;74.50;;;;;;4933755;29;20545;-75
2021/06/03 14:22:18;;;;;;;6.13;4.30;;;30.30;74.60;;;;;;4916915;29;20546;-73
2021/06/03 14:24:55;;;;;;;4.30;4.00;;;30.20;73.10;;;;;;4915452;29;20479;-74
2021/06/03 14:27:43;;;;;;;6.70;3.50;;;30.20;74.50;;;;;;4913875;29;20466;-74
2021/06/03 14:30:17;;;;;;;5.27;4.10;;;30.30;73.10;;;;;;4914610;29;20448;-75
2021/06/03 14:32:46;;;;;;;5.70;3.87;;;30.30;70.50;;;;;;4915270;29;20428;-75
2021/06/03 14:35:16;;;;;;;5.13;3.97;;;30.30;73.30;;;;;;4917119;29;20442;-74
2021/06/03 14:37:43;;;;;;;7.90;4.13;;;30.40;74.50;;;;;;4916954;29;20443;-74
2021/06/03 14:40:30;;;;;;;8.17;4.20;;;30.40;73.00;;;;;;4933646;29;20474;-76
2021/06/03 14:43:15;;;;;;;10.13;4.40;;;30.40;71.40;;;;;;4914772;29;20462;-74
2021/06/03 14:45:45;;;;;;;5.43;3.93;;;30.20;72.80;;;;;;4913968;29;20450;-74
2021/06/03 14:48:17;;;;;;;9.70;4.07;;;30.00;72.60;;;;;;4911931;29;20428;-73
2021/06/03 14:50:44;;;;;;;4.03;3.83;;;30.00;74.80;;;;;;4915292;29;20439;-75
2021/06/03 14:53:11;;;;;;;6.20;4.20;;;30.00;72.50;;;;;;4917184;29;20769;-76
2021/06/03 14:55:42;;;;;;;6.67;4.43;;;30.00;73.60;;;;;;4916841;29;20438;-75